메인 페이지
METAR-TAF:

METAR-TAF

공항 :

댈러스 포트워스 국제공항

댈러스 / 포트워스, 텍사스, 미국

위도: 32-53-49N, 경도: 097-01-19W, 고도: 183m

현재 날씨관측

예보는 14분 전, 05:53시(UTC)에 발표되었습니다.
7kt
온도 31°C
습도 46%
기압 1015 hPa
시정: 16.1km
고도 30000ft 상공 구름 조금

METAR: KDFW 170553Z 18007KT 10SM FEW300 31/18 A2997 RMK AO2 SLP138 T03060183 10372 20306 403830267 51008

시각: 01:07 (06:07 UTC)

예보

예보는 47분 전, 05:20시(UTC)에 발표되었습니다.
예보 대상 시간: 17일 06시부터 18일 12시까지 (UTC)
남남동8kt
시정: 10km
고도 25000ft 상공 구름 조금
17일 1400시부터 (UTC)
남서10kt
시정: 10km
맑음

TAF: KDFW 170520Z 1706/1812 15008KT P6SM FEW250 FM171400 23010KT P6SM SKC

4,000개 이상의 공항 관측 자료 및 예보 (METAR 및 TAF 보고).

지도상에서 검색 가능한 기상관측소가 노란 점과 빨간 점으로 표시되어 있습니다.

기상관측소 명을 보려면 표시 위로 마우스를 이동하세요.

날씨 관측과 예보를 보려면 클릭하세요.

지도 변경 : 확대하려면 엑스 표시가 있는 녹색 버튼, 축소하려면 빼기 표시가 있는 녹색 버튼, 다음 페이지의 지도를 보려면 녹색 화살표를 클릭하세요.


METAR-TAF: